sensor_id;sensor_type;location;lat;lon;timestamp;P1;durP1;ratioP1;P2;durP2;ratioP2
3415;SDS011;1721;51.238;9.562;2023-07-13T00:01:28;8.48;;;2.30;;
3415;SDS011;1721;51.238;9.562;2023-07-13T00:03:54;4.03;;;1.80;;
3415;SDS011;1721;51.238;9.562;2023-07-13T00:06:24;4.77;;;1.73;;
3415;SDS011;1721;51.238;9.562;2023-07-13T00:08:49;10.90;;;2.60;;
3415;SDS011;1721;51.238;9.562;2023-07-13T00:11:15;6.07;;;2.20;;
3415;SDS011;1721;51.238;9.562;2023-07-13T00:13:42;10.73;;;2.37;;
3415;SDS011;1721;51.238;9.562;2023-07-13T00:16:08;7.83;;;2.10;;
3415;SDS011;1721;51.238;9.562;2023-07-13T00:18:35;6.03;;;2.20;;
3415;SDS011;1721;51.238;9.562;2023-07-13T00:21:00;7.37;;;2.10;;
3415;SDS011;1721;51.238;9.562;2023-07-13T00:23:31;6.45;;;2.33;;
3415;SDS011;1721;51.238;9.562;2023-07-13T00:25:58;9.32;;;2.45;;
3415;SDS011;1721;51.238;9.562;2023-07-13T00:28:25;14.25;;;2.72;;
3415;SDS011;1721;51.238;9.562;2023-07-13T00:30:50;5.37;;;2.03;;
3415;SDS011;1721;51.238;9.562;2023-07-13T00:33:16;6.17;;;2.47;;
3415;SDS011;1721;51.238;9.562;2023-07-13T00:35:41;5.57;;;1.80;;
3415;SDS011;1721;51.238;9.562;2023-07-13T00:38:08;5.90;;;2.10;;
3415;SDS011;1721;51.238;9.562;2023-07-13T00:40:34;4.97;;;2.10;;
3415;SDS011;1721;51.238;9.562;2023-07-13T00:43:00;4.60;;;2.17;;
3415;SDS011;1721;51.238;9.562;2023-07-13T00:47:51;7.03;;;2.37;;
3415;SDS011;1721;51.238;9.562;2023-07-13T00:50:17;6.80;;;2.27;;
3415;SDS011;1721;51.238;9.562;2023-07-13T00:52:45;7.03;;;2.07;;
3415;SDS011;1721;51.238;9.562;2023-07-13T00:55:18;4.10;;;1.60;;
3415;SDS011;1721;51.238;9.562;2023-07-13T00:57:45;5.15;;;2.38;;
3415;SDS011;1721;51.238;9.562;2023-07-13T01:00:10;5.27;;;2.20;;
3415;SDS011;1721;51.238;9.562;2023-07-13T01:02:37;6.68;;;2.30;;
3415;SDS011;1721;51.238;9.562;2023-07-13T01:05:11;9.53;;;2.63;;
3415;SDS011;1721;51.238;9.562;2023-07-13T01:07:39;8.37;;;2.63;;
3415;SDS011;1721;51.238;9.562;2023-07-13T01:10:06;6.60;;;2.60;;
3415;SDS011;1721;51.238;9.562;2023-07-13T01:12:32;6.88;;;1.92;;
3415;SDS011;1721;51.238;9.562;2023-07-13T01:14:58;5.13;;;2.33;;
3415;SDS011;1721;51.238;9.562;2023-07-13T01:17:25;5.47;;;2.20;;
3415;SDS011;1721;51.238;9.562;2023-07-13T01:19:52;5.90;;;2.17;;
3415;SDS011;1721;51.238;9.562;2023-07-13T01:22:18;6.23;;;2.20;;
3415;SDS011;1721;51.238;9.562;2023-07-13T01:24:45;4.33;;;1.90;;
3415;SDS011;1721;51.238;9.562;2023-07-13T01:27:13;7.70;;;2.47;;
3415;SDS011;1721;51.238;9.562;2023-07-13T01:29:41;7.88;;;2.38;;
3415;SDS011;1721;51.238;9.562;2023-07-13T01:32:09;7.80;;;2.40;;
3415;SDS011;1721;51.238;9.562;2023-07-13T01:34:36;5.60;;;2.30;;
3415;SDS011;1721;51.238;9.562;2023-07-13T01:37:02;7.20;;;2.33;;
3415;SDS011;1721;51.238;9.562;2023-07-13T01:39:29;6.10;;;2.27;;
3415;SDS011;1721;51.238;9.562;2023-07-13T01:41:55;7.90;;;2.23;;
3415;SDS011;1721;51.238;9.562;2023-07-13T01:44:20;5.80;;;2.40;;
3415;SDS011;1721;51.238;9.562;2023-07-13T01:46:46;9.53;;;1.93;;
3415;SDS011;1721;51.238;9.562;2023-07-13T01:49:11;5.30;;;2.47;;
3415;SDS011;1721;51.238;9.562;2023-07-13T01:51:37;6.13;;;2.17;;
3415;SDS011;1721;51.238;9.562;2023-07-13T01:54:02;6.10;;;2.10;;
3415;SDS011;1721;51.238;9.562;2023-07-13T01:56:28;7.20;;;2.00;;
3415;SDS011;1721;51.238;9.562;2023-07-13T01:58:53;9.47;;;3.03;;
3415;SDS011;1721;51.238;9.562;2023-07-13T02:01:19;7.87;;;2.37;;
3415;SDS011;1721;51.238;9.562;2023-07-13T02:03:44;6.00;;;1.97;;
3415;SDS011;1721;51.238;9.562;2023-07-13T02:06:11;5.83;;;2.23;;
3415;SDS011;1721;51.238;9.562;2023-07-13T02:08:37;9.60;;;2.37;;
3415;SDS011;1721;51.238;9.562;2023-07-13T02:11:03;5.30;;;1.90;;
3415;SDS011;1721;51.238;9.562;2023-07-13T02:13:28;4.37;;;1.83;;
3415;SDS011;1721;51.238;9.562;2023-07-13T02:15:54;6.97;;;2.30;;
3415;SDS011;1721;51.238;9.562;2023-07-13T02:18:20;9.93;;;2.10;;
3415;SDS011;1721;51.238;9.562;2023-07-13T02:20:45;6.77;;;2.20;;
3415;SDS011;1721;51.238;9.562;2023-07-13T02:23:11;7.43;;;2.50;;
3415;SDS011;1721;51.238;9.562;2023-07-13T02:25:36;6.17;;;2.40;;
3415;SDS011;1721;51.238;9.562;2023-07-13T02:28:02;9.33;;;2.80;;
3415;SDS011;1721;51.238;9.562;2023-07-13T02:30:28;7.53;;;2.20;;
3415;SDS011;1721;51.238;9.562;2023-07-13T02:32:55;9.27;;;3.13;;
3415;SDS011;1721;51.238;9.562;2023-07-13T02:35:21;6.10;;;2.17;;
3415;SDS011;1721;51.238;9.562;2023-07-13T02:37:47;6.70;;;2.20;;
3415;SDS011;1721;51.238;9.562;2023-07-13T02:40:12;6.30;;;2.30;;
3415;SDS011;1721;51.238;9.562;2023-07-13T02:42:38;5.80;;;2.20;;
3415;SDS011;1721;51.238;9.562;2023-07-13T02:45:04;5.57;;;2.53;;
3415;SDS011;1721;51.238;9.562;2023-07-13T02:47:31;8.07;;;2.67;;
3415;SDS011;1721;51.238;9.562;2023-07-13T02:49:57;8.57;;;2.20;;
3415;SDS011;1721;51.238;9.562;2023-07-13T02:52:22;5.17;;;2.00;;
3415;SDS011;1721;51.238;9.562;2023-07-13T02:54:48;5.83;;;2.33;;
3415;SDS011;1721;51.238;9.562;2023-07-13T02:57:14;7.63;;;3.03;;
3415;SDS011;1721;51.238;9.562;2023-07-13T02:59:39;6.17;;;1.80;;
3415;SDS011;1721;51.238;9.562;2023-07-13T03:02:05;5.53;;;2.30;;
3415;SDS011;1721;51.238;9.562;2023-07-13T03:04:30;5.47;;;1.83;;
3415;SDS011;1721;51.238;9.562;2023-07-13T03:06:56;6.10;;;1.90;;
3415;SDS011;1721;51.238;9.562;2023-07-13T03:09:23;5.60;;;2.38;;
3415;SDS011;1721;51.238;9.562;2023-07-13T03:11:52;7.83;;;2.27;;
3415;SDS011;1721;51.238;9.562;2023-07-13T03:14:18;5.18;;;2.10;;
3415;SDS011;1721;51.238;9.562;2023-07-13T03:16:44;6.17;;;2.60;;
3415;SDS011;1721;51.238;9.562;2023-07-13T03:19:09;6.47;;;2.47;;
3415;SDS011;1721;51.238;9.562;2023-07-13T03:21:35;4.80;;;2.43;;
3415;SDS011;1721;51.238;9.562;2023-07-13T03:24:00;6.20;;;2.30;;
3415;SDS011;1721;51.238;9.562;2023-07-13T03:26:26;5.70;;;2.23;;
3415;SDS011;1721;51.238;9.562;2023-07-13T03:28:51;7.63;;;2.23;;
3415;SDS011;1721;51.238;9.562;2023-07-13T03:31:18;5.20;;;2.67;;
3415;SDS011;1721;51.238;9.562;2023-07-13T03:33:45;6.78;;;2.85;;
3415;SDS011;1721;51.238;9.562;2023-07-13T03:36:15;6.57;;;2.70;;
3415;SDS011;1721;51.238;9.562;2023-07-13T03:38:47;10.93;;;2.25;;
3415;SDS011;1721;51.238;9.562;2023-07-13T03:41:14;6.35;;;2.33;;
3415;SDS011;1721;51.238;9.562;2023-07-13T03:43:40;7.07;;;2.45;;
3415;SDS011;1721;51.238;9.562;2023-07-13T03:46:06;7.23;;;2.70;;
3415;SDS011;1721;51.238;9.562;2023-07-13T03:48:31;12.47;;;3.10;;
3415;SDS011;1721;51.238;9.562;2023-07-13T03:50:57;6.57;;;2.30;;
3415;SDS011;1721;51.238;9.562;2023-07-13T03:53:22;8.53;;;2.70;;
3415;SDS011;1721;51.238;9.562;2023-07-13T03:55:48;8.83;;;2.53;;
3415;SDS011;1721;51.238;9.562;2023-07-13T03:58:24;9.13;;;2.60;;
3415;SDS011;1721;51.238;9.562;2023-07-13T04:00:53;10.77;;;2.83;;
3415;SDS011;1721;51.238;9.562;2023-07-13T04:03:19;7.47;;;2.28;;
3415;SDS011;1721;51.238;9.562;2023-07-13T04:05:45;5.33;;;2.10;;
3415;SDS011;1721;51.238;9.562;2023-07-13T04:08:11;10.07;;;2.57;;
3415;SDS011;1721;51.238;9.562;2023-07-13T04:10:37;9.52;;;3.00;;
3415;SDS011;1721;51.238;9.562;2023-07-13T04:13:03;11.65;;;2.53;;
3415;SDS011;1721;51.238;9.562;2023-07-13T04:15:30;10.37;;;2.67;;
3415;SDS011;1721;51.238;9.562;2023-07-13T04:17:56;8.90;;;2.50;;
3415;SDS011;1721;51.238;9.562;2023-07-13T04:20:22;5.33;;;2.17;;
3415;SDS011;1721;51.238;9.562;2023-07-13T04:22:48;4.75;;;2.40;;
3415;SDS011;1721;51.238;9.562;2023-07-13T04:25:14;17.27;;;2.83;;
3415;SDS011;1721;51.238;9.562;2023-07-13T04:27:40;13.37;;;2.80;;
3415;SDS011;1721;51.238;9.562;2023-07-13T04:30:05;10.00;;;2.37;;
3415;SDS011;1721;51.238;9.562;2023-07-13T04:32:31;5.85;;;2.30;;
3415;SDS011;1721;51.238;9.562;2023-07-13T04:34:57;27.30;;;2.83;;
3415;SDS011;1721;51.238;9.562;2023-07-13T04:37:24;7.40;;;2.28;;
3415;SDS011;1721;51.238;9.562;2023-07-13T04:39:50;8.90;;;2.85;;
3415;SDS011;1721;51.238;9.562;2023-07-13T04:42:16;5.40;;;2.10;;
3415;SDS011;1721;51.238;9.562;2023-07-13T04:44:46;6.43;;;2.40;;
3415;SDS011;1721;51.238;9.562;2023-07-13T04:47:13;7.87;;;2.90;;
3415;SDS011;1721;51.238;9.562;2023-07-13T04:49:38;6.80;;;2.63;;
3415;SDS011;1721;51.238;9.562;2023-07-13T04:52:05;8.23;;;2.10;;
3415;SDS011;1721;51.238;9.562;2023-07-13T04:54:32;7.53;;;2.50;;
3415;SDS011;1721;51.238;9.562;2023-07-13T04:56:58;5.03;;;2.20;;
3415;SDS011;1721;51.238;9.562;2023-07-13T04:59:24;9.63;;;2.30;;
3415;SDS011;1721;51.238;9.562;2023-07-13T05:01:50;9.00;;;2.27;;
3415;SDS011;1721;51.238;9.562;2023-07-13T05:04:16;12.77;;;2.17;;
3415;SDS011;1721;51.238;9.562;2023-07-13T05:06:41;6.57;;;2.40;;
3415;SDS011;1721;51.238;9.562;2023-07-13T05:09:07;4.40;;;1.97;;
3415;SDS011;1721;51.238;9.562;2023-07-13T05:11:32;5.10;;;1.60;;
3415;SDS011;1721;51.238;9.562;2023-07-13T05:13:58;5.40;;;1.83;;
3415;SDS011;1721;51.238;9.562;2023-07-13T05:16:26;6.93;;;2.03;;
3415;SDS011;1721;51.238;9.562;2023-07-13T05:18:52;7.93;;;1.67;;
3415;SDS011;1721;51.238;9.562;2023-07-13T05:21:17;6.10;;;1.40;;
3415;SDS011;1721;51.238;9.562;2023-07-13T05:23:43;6.77;;;1.97;;
3415;SDS011;1721;51.238;9.562;2023-07-13T05:26:08;6.93;;;1.70;;
3415;SDS011;1721;51.238;9.562;2023-07-13T05:28:34;5.10;;;1.30;;
3415;SDS011;1721;51.238;9.562;2023-07-13T05:30:59;6.63;;;1.77;;
3415;SDS011;1721;51.238;9.562;2023-07-13T05:33:25;6.53;;;1.87;;
3415;SDS011;1721;51.238;9.562;2023-07-13T05:35:51;6.97;;;1.50;;
3415;SDS011;1721;51.238;9.562;2023-07-13T05:38:17;4.60;;;1.37;;
3415;SDS011;1721;51.238;9.562;2023-07-13T05:40:43;9.27;;;1.60;;
3415;SDS011;1721;51.238;9.562;2023-07-13T05:43:09;5.60;;;1.40;;
3415;SDS011;1721;51.238;9.562;2023-07-13T05:45:34;7.13;;;1.30;;
3415;SDS011;1721;51.238;9.562;2023-07-13T05:48:00;6.37;;;1.07;;
3415;SDS011;1721;51.238;9.562;2023-07-13T05:50:26;6.67;;;1.10;;
3415;SDS011;1721;51.238;9.562;2023-07-13T05:52:52;4.63;;;1.27;;
3415;SDS011;1721;51.238;9.562;2023-07-13T05:55:18;6.40;;;1.67;;
3415;SDS011;1721;51.238;9.562;2023-07-13T05:57:44;4.57;;;1.20;;
3415;SDS011;1721;51.238;9.562;2023-07-13T06:00:10;5.00;;;1.00;;
3415;SDS011;1721;51.238;9.562;2023-07-13T06:02:36;9.83;;;1.27;;
3415;SDS011;1721;51.238;9.562;2023-07-13T06:05:01;4.53;;;1.10;;
3415;SDS011;1721;51.238;9.562;2023-07-13T06:07:27;4.63;;;1.17;;
3415;SDS011;1721;51.238;9.562;2023-07-13T06:09:53;7.90;;;1.87;;
3415;SDS011;1721;51.238;9.562;2023-07-13T06:12:18;5.80;;;1.33;;
3415;SDS011;1721;51.238;9.562;2023-07-13T06:14:44;5.83;;;1.13;;
3415;SDS011;1721;51.238;9.562;2023-07-13T06:17:09;4.37;;;1.10;;
3415;SDS011;1721;51.238;9.562;2023-07-13T06:19:35;8.43;;;1.10;;
3415;SDS011;1721;51.238;9.562;2023-07-13T06:22:00;17.93;;;2.60;;
3415;SDS011;1721;51.238;9.562;2023-07-13T06:24:26;3.10;;;0.80;;
3415;SDS011;1721;51.238;9.562;2023-07-13T06:26:52;5.07;;;1.10;;
3415;SDS011;1721;51.238;9.562;2023-07-13T06:29:17;4.00;;;1.10;;
3415;SDS011;1721;51.238;9.562;2023-07-13T06:31:43;5.60;;;1.07;;
3415;SDS011;1721;51.238;9.562;2023-07-13T06:34:08;7.93;;;1.13;;
3415;SDS011;1721;51.238;9.562;2023-07-13T06:36:34;3.10;;;0.90;;
3415;SDS011;1721;51.238;9.562;2023-07-13T06:39:01;6.00;;;1.47;;
3415;SDS011;1721;51.238;9.562;2023-07-13T06:41:27;4.53;;;1.00;;
3415;SDS011;1721;51.238;9.562;2023-07-13T06:43:53;4.00;;;1.03;;
3415;SDS011;1721;51.238;9.562;2023-07-13T06:46:20;7.03;;;1.33;;
3415;SDS011;1721;51.238;9.562;2023-07-13T06:48:47;6.73;;;1.70;;
3415;SDS011;1721;51.238;9.562;2023-07-13T06:51:12;9.83;;;1.40;;
3415;SDS011;1721;51.238;9.562;2023-07-13T06:53:38;7.90;;;1.50;;
3415;SDS011;1721;51.238;9.562;2023-07-13T06:56:03;10.57;;;1.50;;
3415;SDS011;1721;51.238;9.562;2023-07-13T06:58:30;5.80;;;1.07;;
3415;SDS011;1721;51.238;9.562;2023-07-13T07:00:55;4.90;;;1.13;;
3415;SDS011;1721;51.238;9.562;2023-07-13T07:03:21;11.80;;;1.80;;
3415;SDS011;1721;51.238;9.562;2023-07-13T07:05:46;4.00;;;1.00;;
3415;SDS011;1721;51.238;9.562;2023-07-13T07:08:12;5.67;;;1.27;;
3415;SDS011;1721;51.238;9.562;2023-07-13T07:10:38;8.17;;;1.73;;
3415;SDS011;1721;51.238;9.562;2023-07-13T07:13:05;8.40;;;1.20;;
3415;SDS011;1721;51.238;9.562;2023-07-13T07:15:30;7.00;;;1.30;;
3415;SDS011;1721;51.238;9.562;2023-07-13T07:17:56;5.73;;;1.20;;
3415;SDS011;1721;51.238;9.562;2023-07-13T07:20:22;10.57;;;1.77;;
3415;SDS011;1721;51.238;9.562;2023-07-13T07:22:48;6.23;;;1.07;;
3415;SDS011;1721;51.238;9.562;2023-07-13T07:25:13;9.70;;;1.37;;
3415;SDS011;1721;51.238;9.562;2023-07-13T07:27:39;8.73;;;1.50;;
3415;SDS011;1721;51.238;9.562;2023-07-13T07:30:05;4.30;;;1.30;;
3415;SDS011;1721;51.238;9.562;2023-07-13T07:32:31;4.80;;;1.17;;
3415;SDS011;1721;51.238;9.562;2023-07-13T07:34:57;4.43;;;0.80;;
3415;SDS011;1721;51.238;9.562;2023-07-13T07:37:23;4.77;;;1.13;;
3415;SDS011;1721;51.238;9.562;2023-07-13T07:39:48;6.90;;;1.33;;
3415;SDS011;1721;51.238;9.562;2023-07-13T07:42:14;6.00;;;1.20;;
3415;SDS011;1721;51.238;9.562;2023-07-13T07:44:40;11.17;;;1.17;;
3415;SDS011;1721;51.238;9.562;2023-07-13T07:47:06;8.20;;;1.07;;
3415;SDS011;1721;51.238;9.562;2023-07-13T07:49:32;3.80;;;0.90;;
3415;SDS011;1721;51.238;9.562;2023-07-13T07:51:58;4.60;;;1.03;;
3415;SDS011;1721;51.238;9.562;2023-07-13T07:54:23;5.20;;;1.20;;
3415;SDS011;1721;51.238;9.562;2023-07-13T07:56:49;9.53;;;1.20;;
3415;SDS011;1721;51.238;9.562;2023-07-13T07:59:14;3.93;;;0.80;;
3415;SDS011;1721;51.238;9.562;2023-07-13T08:01:40;3.40;;;0.90;;
3415;SDS011;1721;51.238;9.562;2023-07-13T08:04:05;6.63;;;1.00;;
3415;SDS011;1721;51.238;9.562;2023-07-13T08:06:32;3.10;;;0.80;;
3415;SDS011;1721;51.238;9.562;2023-07-13T08:08:58;7.60;;;1.63;;
3415;SDS011;1721;51.238;9.562;2023-07-13T08:11:24;3.40;;;0.83;;
3415;SDS011;1721;51.238;9.562;2023-07-13T08:13:50;5.80;;;1.43;;
3415;SDS011;1721;51.238;9.562;2023-07-13T08:16:16;4.90;;;0.90;;
3415;SDS011;1721;51.238;9.562;2023-07-13T08:18:42;8.90;;;1.20;;
3415;SDS011;1721;51.238;9.562;2023-07-13T08:21:08;5.00;;;0.70;;
3415;SDS011;1721;51.238;9.562;2023-07-13T08:23:34;4.60;;;1.10;;
3415;SDS011;1721;51.238;9.562;2023-07-13T08:26:00;5.50;;;0.90;;
3415;SDS011;1721;51.238;9.562;2023-07-13T08:28:27;5.70;;;1.00;;
3415;SDS011;1721;51.238;9.562;2023-07-13T08:30:52;8.63;;;1.13;;
3415;SDS011;1721;51.238;9.562;2023-07-13T08:33:18;8.73;;;1.00;;
3415;SDS011;1721;51.238;9.562;2023-07-13T08:35:46;5.77;;;1.90;;
3415;SDS011;1721;51.238;9.562;2023-07-13T08:38:12;4.20;;;1.07;;
3415;SDS011;1721;51.238;9.562;2023-07-13T08:40:38;3.70;;;0.90;;
3415;SDS011;1721;51.238;9.562;2023-07-13T08:43:06;3.87;;;1.00;;
3415;SDS011;1721;51.238;9.562;2023-07-13T08:48:24;5.07;;;0.90;;
3415;SDS011;1721;51.238;9.562;2023-07-13T08:50:56;5.00;;;0.93;;
3415;SDS011;1721;51.238;9.562;2023-07-13T08:53:31;7.83;;;1.03;;
3415;SDS011;1721;51.238;9.562;2023-07-13T08:56:02;5.50;;;1.00;;
3415;SDS011;1721;51.238;9.562;2023-07-13T08:58:34;6.70;;;1.20;;
3415;SDS011;1721;51.238;9.562;2023-07-13T09:01:14;6.03;;;1.20;;
3415;SDS011;1721;51.238;9.562;2023-07-13T09:03:57;4.73;;;0.80;;
3415;SDS011;1721;51.238;9.562;2023-07-13T09:06:27;5.00;;;1.30;;
3415;SDS011;1721;51.238;9.562;2023-07-13T09:09:02;3.93;;;0.80;;
3415;SDS011;1721;51.238;9.562;2023-07-13T09:11:46;3.77;;;1.00;;
3415;SDS011;1721;51.238;9.562;2023-07-13T09:16:55;5.50;;;1.10;;
3415;SDS011;1721;51.238;9.562;2023-07-13T09:19:23;8.87;;;1.20;;
3415;SDS011;1721;51.238;9.562;2023-07-13T09:21:53;6.83;;;1.03;;
3415;SDS011;1721;51.238;9.562;2023-07-13T09:27:13;5.73;;;1.03;;
3415;SDS011;1721;51.238;9.562;2023-07-13T09:29:44;6.30;;;0.90;;
3415;SDS011;1721;51.238;9.562;2023-07-13T09:32:14;8.37;;;1.90;;
3415;SDS011;1721;51.238;9.562;2023-07-13T09:34:41;3.93;;;0.90;;
3415;SDS011;1721;51.238;9.562;2023-07-13T09:37:07;5.97;;;0.90;;
3415;SDS011;1721;51.238;9.562;2023-07-13T09:39:33;6.50;;;0.90;;
3415;SDS011;1721;51.238;9.562;2023-07-13T09:44:37;3.40;;;0.73;;
3415;SDS011;1721;51.238;9.562;2023-07-13T09:47:14;4.33;;;0.90;;
3415;SDS011;1721;51.238;9.562;2023-07-13T09:50:04;10.43;;;1.40;;
3415;SDS011;1721;51.238;9.562;2023-07-13T09:52:42;3.87;;;0.87;;
3415;SDS011;1721;51.238;9.562;2023-07-13T09:58:03;10.70;;;1.73;;
3415;SDS011;1721;51.238;9.562;2023-07-13T10:00:38;4.30;;;0.90;;
3415;SDS011;1721;51.238;9.562;2023-07-13T10:03:18;3.50;;;1.00;;
3415;SDS011;1721;51.238;9.562;2023-07-13T10:05:47;4.20;;;0.80;;
3415;SDS011;1721;51.238;9.562;2023-07-13T10:08:18;6.00;;;0.97;;
3415;SDS011;1721;51.238;9.562;2023-07-13T10:10:44;5.57;;;0.90;;
3415;SDS011;1721;51.238;9.562;2023-07-13T10:15:57;5.87;;;1.17;;
3415;SDS011;1721;51.238;9.562;2023-07-13T10:18:24;4.10;;;1.13;;
3415;SDS011;1721;51.238;9.562;2023-07-13T10:20:53;4.57;;;0.87;;
3415;SDS011;1721;51.238;9.562;2023-07-13T10:23:26;3.73;;;0.80;;
3415;SDS011;1721;51.238;9.562;2023-07-13T10:25:56;4.50;;;1.10;;
3415;SDS011;1721;51.238;9.562;2023-07-13T10:28:29;6.67;;;1.00;;
3415;SDS011;1721;51.238;9.562;2023-07-13T10:30:58;3.63;;;0.80;;
3415;SDS011;1721;51.238;9.562;2023-07-13T10:33:25;3.37;;;0.90;;
3415;SDS011;1721;51.238;9.562;2023-07-13T10:35:53;3.30;;;0.80;;
3415;SDS011;1721;51.238;9.562;2023-07-13T10:38:26;5.80;;;1.03;;
3415;SDS011;1721;51.238;9.562;2023-07-13T10:40:57;6.50;;;1.10;;
3415;SDS011;1721;51.238;9.562;2023-07-13T10:43:35;6.43;;;1.10;;
3415;SDS011;1721;51.238;9.562;2023-07-13T10:46:08;3.90;;;0.90;;
3415;SDS011;1721;51.238;9.562;2023-07-13T10:48:35;3.43;;;0.90;;
3415;SDS011;1721;51.238;9.562;2023-07-13T10:51:03;6.37;;;1.03;;
3415;SDS011;1721;51.238;9.562;2023-07-13T10:53:32;4.10;;;1.10;;
3415;SDS011;1721;51.238;9.562;2023-07-13T10:56:01;5.00;;;1.07;;
3415;SDS011;1721;51.238;9.562;2023-07-13T10:58:39;11.00;;;1.10;;
3415;SDS011;1721;51.238;9.562;2023-07-13T11:01:09;3.00;;;0.70;;
3415;SDS011;1721;51.238;9.562;2023-07-13T11:03:49;4.20;;;0.80;;
3415;SDS011;1721;51.238;9.562;2023-07-13T11:08:56;3.67;;;0.80;;
3415;SDS011;1721;51.238;9.562;2023-07-13T11:21:27;3.97;;;0.87;;
3415;SDS011;1721;51.238;9.562;2023-07-13T11:26:53;4.03;;;0.90;;
3415;SDS011;1721;51.238;9.562;2023-07-13T11:31:56;5.30;;;0.90;;
3415;SDS011;1721;51.238;9.562;2023-07-13T11:34:30;3.10;;;0.80;;
3415;SDS011;1721;51.238;9.562;2023-07-13T11:37:00;3.83;;;0.90;;
3415;SDS011;1721;51.238;9.562;2023-07-13T11:41:56;8.23;;;1.07;;
3415;SDS011;1721;51.238;9.562;2023-07-13T11:44:25;4.87;;;0.90;;
3415;SDS011;1721;51.238;9.562;2023-07-13T11:46:54;3.90;;;0.60;;
3415;SDS011;1721;51.238;9.562;2023-07-13T11:49:26;6.93;;;0.87;;
3415;SDS011;1721;51.238;9.562;2023-07-13T11:51:54;4.77;;;1.00;;
3415;SDS011;1721;51.238;9.562;2023-07-13T11:54:34;4.80;;;0.90;;
3415;SDS011;1721;51.238;9.562;2023-07-13T11:57:28;3.00;;;0.80;;
3415;SDS011;1721;51.238;9.562;2023-07-13T12:00:02;5.47;;;1.00;;
3415;SDS011;1721;51.238;9.562;2023-07-13T12:02:38;3.43;;;0.80;;
3415;SDS011;1721;51.238;9.562;2023-07-13T12:05:09;4.67;;;1.00;;
3415;SDS011;1721;51.238;9.562;2023-07-13T12:07:37;3.87;;;0.90;;
3415;SDS011;1721;51.238;9.562;2023-07-13T12:12:51;3.33;;;0.80;;
3415;SDS011;1721;51.238;9.562;2023-07-13T12:15:21;3.87;;;1.07;;
3415;SDS011;1721;51.238;9.562;2023-07-13T12:17:48;4.93;;;1.13;;
3415;SDS011;1721;51.238;9.562;2023-07-13T12:20:57;4.90;;;1.00;;
3415;SDS011;1721;51.238;9.562;2023-07-13T12:23:10;5.03;;;0.80;;
3415;SDS011;1721;51.238;9.562;2023-07-13T12:25:52;13.77;;;1.00;;
3415;SDS011;1721;51.238;9.562;2023-07-13T12:28:23;3.67;;;0.80;;
3415;SDS011;1721;51.238;9.562;2023-07-13T12:31:03;3.33;;;0.80;;
3415;SDS011;1721;51.238;9.562;2023-07-13T12:33:30;4.10;;;0.80;;
3415;SDS011;1721;51.238;9.562;2023-07-13T12:35:57;6.70;;;0.87;;
3415;SDS011;1721;51.238;9.562;2023-07-13T12:38:27;4.60;;;0.80;;
3415;SDS011;1721;51.238;9.562;2023-07-13T12:40:53;7.97;;;1.00;;
3415;SDS011;1721;51.238;9.562;2023-07-13T12:43:22;3.30;;;0.90;;
3415;SDS011;1721;51.238;9.562;2023-07-13T12:46:23;4.53;;;0.93;;
3415;SDS011;1721;51.238;9.562;2023-07-13T12:48:40;3.10;;;0.80;;
3415;SDS011;1721;51.238;9.562;2023-07-13T12:51:10;3.13;;;0.77;;
3415;SDS011;1721;51.238;9.562;2023-07-13T12:53:41;3.20;;;1.00;;
3415;SDS011;1721;51.238;9.562;2023-07-13T12:56:19;3.60;;;0.70;;
3415;SDS011;1721;51.238;9.562;2023-07-13T12:58:48;6.17;;;1.70;;
3415;SDS011;1721;51.238;9.562;2023-07-13T13:01:19;3.10;;;0.80;;
3415;SDS011;1721;51.238;9.562;2023-07-13T13:03:48;3.17;;;0.73;;
3415;SDS011;1721;51.238;9.562;2023-07-13T13:08:45;2.90;;;0.70;;
3415;SDS011;1721;51.238;9.562;2023-07-13T13:11:13;3.47;;;0.90;;
3415;SDS011;1721;51.238;9.562;2023-07-13T13:13:41;4.50;;;0.80;;
3415;SDS011;1721;51.238;9.562;2023-07-13T13:16:30;4.27;;;0.87;;
3415;SDS011;1721;51.238;9.562;2023-07-13T13:19:15;3.60;;;0.90;;
3415;SDS011;1721;51.238;9.562;2023-07-13T13:21:47;5.03;;;0.87;;
3415;SDS011;1721;51.238;9.562;2023-07-13T13:24:16;3.10;;;0.80;;
3415;SDS011;1721;51.238;9.562;2023-07-13T13:26:45;5.30;;;0.80;;
3415;SDS011;1721;51.238;9.562;2023-07-13T13:29:21;3.53;;;0.90;;
3415;SDS011;1721;51.238;9.562;2023-07-13T13:31:51;3.63;;;1.00;;
3415;SDS011;1721;51.238;9.562;2023-07-13T13:34:18;4.23;;;1.17;;
3415;SDS011;1721;51.238;9.562;2023-07-13T13:36:45;3.73;;;0.97;;
3415;SDS011;1721;51.238;9.562;2023-07-13T13:39:19;4.40;;;0.90;;
3415;SDS011;1721;51.238;9.562;2023-07-13T13:41:48;3.90;;;1.20;;
3415;SDS011;1721;51.238;9.562;2023-07-13T13:44:15;3.90;;;1.27;;
3415;SDS011;1721;51.238;9.562;2023-07-13T13:46:42;5.20;;;1.23;;
3415;SDS011;1721;51.238;9.562;2023-07-13T13:49:16;4.80;;;1.13;;
3415;SDS011;1721;51.238;9.562;2023-07-13T13:51:44;5.80;;;1.30;;
3415;SDS011;1721;51.238;9.562;2023-07-13T13:54:10;13.23;;;1.67;;
3415;SDS011;1721;51.238;9.562;2023-07-13T13:56:37;3.10;;;0.97;;
3415;SDS011;1721;51.238;9.562;2023-07-13T13:59:03;6.43;;;1.20;;
3415;SDS011;1721;51.238;9.562;2023-07-13T14:01:29;4.60;;;1.20;;
3415;SDS011;1721;51.238;9.562;2023-07-13T14:03:56;4.13;;;1.30;;
3415;SDS011;1721;51.238;9.562;2023-07-13T14:06:22;3.50;;;1.00;;
3415;SDS011;1721;51.238;9.562;2023-07-13T14:08:48;4.33;;;1.20;;
3415;SDS011;1721;51.238;9.562;2023-07-13T14:11:14;4.30;;;1.13;;
3415;SDS011;1721;51.238;9.562;2023-07-13T14:13:42;3.30;;;0.90;;
3415;SDS011;1721;51.238;9.562;2023-07-13T14:16:12;4.73;;;1.33;;
3415;SDS011;1721;51.238;9.562;2023-07-13T14:18:42;8.83;;;1.20;;
3415;SDS011;1721;51.238;9.562;2023-07-13T14:21:12;3.90;;;0.97;;
3415;SDS011;1721;51.238;9.562;2023-07-13T14:23:39;4.00;;;1.10;;
3415;SDS011;1721;51.238;9.562;2023-07-13T14:26:12;6.60;;;1.10;;
3415;SDS011;1721;51.238;9.562;2023-07-13T14:28:44;5.13;;;1.27;;
3415;SDS011;1721;51.238;9.562;2023-07-13T14:31:13;3.30;;;1.07;;
3415;SDS011;1721;51.238;9.562;2023-07-13T14:33:39;4.70;;;1.30;;
3415;SDS011;1721;51.238;9.562;2023-07-13T14:36:26;4.20;;;1.00;;
3415;SDS011;1721;51.238;9.562;2023-07-13T14:38:57;4.10;;;1.10;;
3415;SDS011;1721;51.238;9.562;2023-07-13T14:41:24;7.30;;;1.27;;
3415;SDS011;1721;51.238;9.562;2023-07-13T14:43:50;4.87;;;1.30;;
3415;SDS011;1721;51.238;9.562;2023-07-13T14:46:34;8.50;;;1.20;;
3415;SDS011;1721;51.238;9.562;2023-07-13T14:49:04;7.30;;;1.00;;
3415;SDS011;1721;51.238;9.562;2023-07-13T14:51:35;4.17;;;1.43;;
3415;SDS011;1721;51.238;9.562;2023-07-13T14:54:03;5.20;;;1.10;;
3415;SDS011;1721;51.238;9.562;2023-07-13T14:56:30;4.40;;;1.17;;
3415;SDS011;1721;51.238;9.562;2023-07-13T14:58:55;4.30;;;0.87;;
3415;SDS011;1721;51.238;9.562;2023-07-13T15:01:21;4.40;;;1.00;;
3415;SDS011;1721;51.238;9.562;2023-07-13T15:03:48;3.33;;;0.80;;
3415;SDS011;1721;51.238;9.562;2023-07-13T15:06:15;4.47;;;1.10;;
3415;SDS011;1721;51.238;9.562;2023-07-13T15:08:42;4.13;;;1.00;;
3415;SDS011;1721;51.238;9.562;2023-07-13T15:11:08;7.07;;;1.30;;
3415;SDS011;1721;51.238;9.562;2023-07-13T15:13:36;3.90;;;1.13;;
3415;SDS011;1721;51.238;9.562;2023-07-13T15:16:03;4.17;;;1.27;;
3415;SDS011;1721;51.238;9.562;2023-07-13T15:18:29;4.40;;;0.93;;
3415;SDS011;1721;51.238;9.562;2023-07-13T15:20:55;3.50;;;0.80;;
3415;SDS011;1721;51.238;9.562;2023-07-13T15:23:23;5.40;;;1.10;;
3415;SDS011;1721;51.238;9.562;2023-07-13T15:25:49;5.53;;;1.73;;
3415;SDS011;1721;51.238;9.562;2023-07-13T15:28:14;4.90;;;0.93;;
3415;SDS011;1721;51.238;9.562;2023-07-13T15:30:41;5.00;;;1.30;;
3415;SDS011;1721;51.238;9.562;2023-07-13T15:33:15;3.63;;;0.87;;
3415;SDS011;1721;51.238;9.562;2023-07-13T15:35:44;7.47;;;1.00;;
3415;SDS011;1721;51.238;9.562;2023-07-13T15:38:15;3.80;;;1.20;;
3415;SDS011;1721;51.238;9.562;2023-07-13T15:40:43;3.30;;;0.90;;
3415;SDS011;1721;51.238;9.562;2023-07-13T15:43:10;10.03;;;1.07;;
3415;SDS011;1721;51.238;9.562;2023-07-13T15:45:36;5.70;;;1.07;;
3415;SDS011;1721;51.238;9.562;2023-07-13T15:48:05;4.10;;;1.10;;
3415;SDS011;1721;51.238;9.562;2023-07-13T15:50:43;5.37;;;1.00;;
3415;SDS011;1721;51.238;9.562;2023-07-13T15:53:13;4.60;;;1.00;;
3415;SDS011;1721;51.238;9.562;2023-07-13T15:55:59;3.23;;;0.73;;
3415;SDS011;1721;51.238;9.562;2023-07-13T15:58:26;4.10;;;1.03;;
3415;SDS011;1721;51.238;9.562;2023-07-13T16:00:53;11.70;;;2.70;;
3415;SDS011;1721;51.238;9.562;2023-07-13T16:03:19;4.93;;;1.07;;
3415;SDS011;1721;51.238;9.562;2023-07-13T16:05:47;3.77;;;1.10;;